Kanoya Airport
RJFY : now visible

Airfield :











YOU CAN JOIN US ON...

 
LOGIN :

Register | Disclaimer

   EN    FR    IT 

 









Legend :    VFR   Marginal VFR   IFR   Intensive IFR   Very Intensive IFR
Visi :
Ceiling :
>= 8 km
>= 3000ft
5 to 8 km
1000 to 3000 ft
1500m to 5 km
500 to 1000 ft
800 to 1500m
200 to 500 ft
< 800m
< 200 ft
Symbols :   Thunderstorms  Fog  Heavy snow  Heavy precipitations  Wind > 20 kt






- Airport Elevation : 214 ft


RJFY - Kanoya

CURRENT METAR :
  • 042115Z 24002KT 3200 BCFG BR SCT003 SCT008 BKN010 21/19 Q1007 RMK 3ST003 3ST008 7ST010 A2976 FG E-S

EXPIRED METARs :
  • 042022Z 26005KT 3100 BCFG BR SCT002 BKN010 21/19 Q1007 RMK 3ST002 7ST010 A2975 FG E-SW VIS VRB
  • 042005Z 27003KT 6000 FEW002 BKN010 21/19 Q1007 RMK 2ST002 5ST010 A2974
  • 041942Z 28003KT 5000 BR FEW002 SCT005 21/19 Q1006 RMK 2ST002 3ST005 A2973 VIS VRB
  • 041935Z 29003KT 3200 BR FEW002 SCT005 21/18 Q1006 RMK 2ST002 3ST005 A2973
  • 041920Z VRB01KT 3000 BCFG BR FEW002 SCT005 21/19 Q1006 RMK 2ST002 4ST005 A2973 FG S-SW
  • 041843Z 30003KT 3100 BCFG BR FEW002 BKN005 21/18 Q1006 RMK 2ST002 6ST005 A2972 FG S-W

TAF N/A
RJJJ FIR / Asia



MET'MAP, your aeronautical weather chart ! - Copyright ORBIFLY December 2007 - Disclaimer

ORBIFLY MET'MAP TEAM :

Programming & Development : Alexandra Zaïnal
Concept & original design : Baudouin d'Aumeries
Assistance for programming : Marc-Olivier Méhu
Technical & hardware support : Manuel Goepfert

Contact : metmap@orbifly.com




SOURCES & CREDITS :

   NOAA       Earth
Advisory